Rhein, Canada
Current Conditions -  °F | °C
As of 3:00 PM on Monday 20 Oct 2014 (Local Time) from CYQV Reporting Station
Clear Clear  
Wind Chill: 70°   Ceiling: Unl
Heat Index: 70°   Visibility: 9mi
Dew Point: 41°   Wind: 15mph
Humidity: 35%   Direction: 140°SE
Pressure: 29.81"   Gusts: 22mph
Location:  51.35°N, 102.19°W
Report Text: CYQV 202100Z AUTO 14013G19KT 9SM CLR 21/05 A2981 RMK TS/LTNG TEMPO UNAVBL SLP105 DENSITY ALT 2800FT
Loading
Personal Weather Stations






























Interactive Weather Map
Tropical Storm Tracking
New forecast layout! Learn more

10-Day Weather Forecast

Advertisements
Track Severe Weather on mobile